createdAt,value
2019-04-05T00:01:30.384Z,6.01
2019-04-05T00:03:57.873Z,5.99
2019-04-05T00:06:25.369Z,6.00
2019-04-05T00:08:52.849Z,6.05
2019-04-05T00:11:20.364Z,6.03
2019-04-05T00:13:47.921Z,5.99
2019-04-05T00:16:15.367Z,6.07
2019-04-05T00:18:42.807Z,6.01
2019-04-05T00:21:10.208Z,6.03
2019-04-05T00:23:37.763Z,6.02
2019-04-05T00:26:05.559Z,6.04
2019-04-05T00:28:33.008Z,6.00
2019-04-05T00:31:00.425Z,6.02
2019-04-05T00:33:28.013Z,6.03
2019-04-05T00:35:55.403Z,5.99
2019-04-05T00:38:22.802Z,6.04
2019-04-05T00:40:50.234Z,5.99
2019-04-05T00:43:17.628Z,6.05
2019-04-05T00:45:45.118Z,6.06
2019-04-05T00:48:12.528Z,6.06
2019-04-05T00:50:40.003Z,6.00
2019-04-05T00:53:07.514Z,6.05
2019-04-05T00:55:35.193Z,6.03
2019-04-05T00:58:02.660Z,6.04
2019-04-05T01:00:30.398Z,6.03
2019-04-05T01:02:57.792Z,6.07
2019-04-05T01:05:25.233Z,6.11
2019-04-05T01:07:52.628Z,6.11
2019-04-05T01:10:20.193Z,6.09
2019-04-05T01:12:47.575Z,6.09
2019-04-05T01:15:15.130Z,6.13
2019-04-05T01:17:43.123Z,6.15
2019-04-05T01:20:10.885Z,6.14
2019-04-05T01:22:38.882Z,6.14
2019-04-05T01:25:06.438Z,6.17
2019-04-05T01:27:34.509Z,6.20
2019-04-05T01:30:02.055Z,6.15
2019-04-05T01:32:29.930Z,6.19
2019-04-05T01:34:57.388Z,6.19
2019-04-05T01:37:25.113Z,6.23
2019-04-05T01:39:52.591Z,6.24
2019-04-05T01:42:20.094Z,6.23
2019-04-05T01:44:47.776Z,6.24
2019-04-05T01:47:20.873Z,6.19
2019-04-05T01:50:02.578Z,6.17
2019-04-05T01:52:30.094Z,6.16
2019-04-05T01:54:57.959Z,6.16
2019-04-05T01:57:25.384Z,6.19
2019-04-05T01:59:52.963Z,6.21
2019-04-05T02:02:20.553Z,6.21
2019-04-05T02:04:48.025Z,6.16
2019-04-05T02:07:15.738Z,6.15
2019-04-05T02:09:43.365Z,6.14
2019-04-05T02:12:10.955Z,6.15
2019-04-05T02:14:38.642Z,6.11
2019-04-05T02:17:10.398Z,6.14
2019-04-05T02:19:37.884Z,6.10
2019-04-05T02:22:05.665Z,6.11
2019-04-05T02:24:33.030Z,6.17
2019-04-05T02:27:00.512Z,6.11
2019-04-05T02:29:27.968Z,6.16
2019-04-05T02:31:55.698Z,6.15
2019-04-05T02:34:23.158Z,6.12
2019-04-05T02:36:50.607Z,6.13
2019-04-05T02:39:18.108Z,6.13
2019-04-05T02:41:45.849Z,6.14
2019-04-05T02:44:13.644Z,6.15
2019-04-05T02:46:42.779Z,6.07
2019-04-05T02:49:10.378Z,6.07
2019-04-05T02:51:38.515Z,6.08
2019-04-05T02:54:06.207Z,6.11
2019-04-05T02:56:35.600Z,6.13
2019-04-05T02:59:03.271Z,6.11
2019-04-05T03:01:32.054Z,6.05
2019-04-05T03:03:59.831Z,6.09
2019-04-05T03:06:28.084Z,6.12
2019-04-05T03:08:55.687Z,6.07
2019-04-05T03:11:26.745Z,6.09
2019-04-05T03:13:56.434Z,6.09
2019-04-05T03:16:40.424Z,6.00
2019-04-05T03:19:04.335Z,5.93
2019-04-05T03:21:32.905Z,5.90
2019-04-05T03:24:03.622Z,5.91
2019-04-05T03:26:34.195Z,5.89
2019-04-05T03:29:04.236Z,5.95
2019-04-05T03:31:31.784Z,5.90
2019-04-05T03:33:59.702Z,5.94
2019-04-05T03:36:27.505Z,5.98
2019-04-05T03:38:55.395Z,5.93
2019-04-05T03:41:23.025Z,5.93
2019-04-05T03:43:50.537Z,5.94
2019-04-05T03:46:18.215Z,5.96
2019-04-05T03:48:45.932Z,5.88
2019-04-05T03:51:13.375Z,5.90
2019-04-05T03:53:40.874Z,5.93
2019-04-05T03:56:08.423Z,5.95
2019-04-05T03:58:35.807Z,5.88
2019-04-05T04:01:03.448Z,5.95
2019-04-05T04:03:30.905Z,5.98
2019-04-05T04:05:59.023Z,5.95
2019-04-05T04:08:26.448Z,5.96
2019-04-05T04:10:54.581Z,5.92
2019-04-05T04:13:22.165Z,5.93
2019-04-05T04:15:50.382Z,5.95
2019-04-05T04:18:17.863Z,5.96
2019-04-05T04:20:47.983Z,5.99
2019-04-05T04:23:15.404Z,6.02
2019-04-05T04:25:42.899Z,5.99
2019-04-05T04:28:10.462Z,5.97
2019-04-05T04:30:37.967Z,5.89
2019-04-05T04:33:05.785Z,5.90
2019-04-05T04:35:33.490Z,5.91
2019-04-05T04:38:01.063Z,5.95
2019-04-05T04:40:28.804Z,5.93
2019-04-05T04:42:56.231Z,5.98
2019-04-05T04:45:23.622Z,5.94
2019-04-05T04:47:51.061Z,6.08
2019-04-05T04:50:19.151Z,6.03
2019-04-05T04:52:46.982Z,6.09
2019-04-05T04:55:14.463Z,6.12
2019-04-05T04:57:42.007Z,5.96
2019-04-05T05:00:09.772Z,6.02
2019-04-05T05:02:37.223Z,6.01
2019-04-05T05:05:05.883Z,5.98
2019-04-05T05:07:33.507Z,5.99
2019-04-05T05:10:03.320Z,6.00
2019-04-05T05:12:30.378Z,6.03
2019-04-05T05:14:57.908Z,6.03
2019-04-05T05:17:37.465Z,6.04
2019-04-05T05:19:54.850Z,6.04
2019-04-05T05:22:22.779Z,5.97
2019-04-05T05:24:53.013Z,5.99
2019-04-05T05:27:20.871Z,5.97
2019-04-05T05:29:48.273Z,5.95
2019-04-05T05:32:15.828Z,5.99
2019-04-05T05:34:43.523Z,5.92
2019-04-05T05:37:11.053Z,6.02
2019-04-05T05:39:38.474Z,6.06
2019-04-05T05:42:05.928Z,6.03
2019-04-05T05:44:33.325Z,6.11
2019-04-05T05:47:00.778Z,6.12
2019-04-05T05:49:28.148Z,6.11
2019-04-05T05:51:55.854Z,6.11
2019-04-05T05:54:23.372Z,6.15
2019-04-05T05:56:50.972Z,6.14
2019-04-05T05:59:18.539Z,6.14
2019-04-05T06:01:46.126Z,6.07
2019-04-05T06:04:13.892Z,6.09
2019-04-05T06:06:41.431Z,6.11
2019-04-05T06:09:09.051Z,6.03
2019-04-05T06:11:36.652Z,6.05
2019-04-05T06:14:04.271Z,6.03
2019-04-05T06:16:31.832Z,5.99
2019-04-05T06:18:59.492Z,5.98
2019-04-05T06:21:27.212Z,5.96
2019-04-05T06:23:54.773Z,6.04
2019-04-05T06:26:22.295Z,6.07
2019-04-05T06:28:50.093Z,6.05
2019-04-05T06:31:17.852Z,6.02
2019-04-05T06:33:45.471Z,6.04
2019-04-05T06:36:13.072Z,6.07
2019-04-05T06:38:40.671Z,6.11
2019-04-05T06:41:08.272Z,6.07
2019-04-05T06:43:36.193Z,6.10
2019-04-05T06:46:03.878Z,6.08
2019-04-05T06:48:31.752Z,6.07
2019-04-05T06:50:59.292Z,6.09
2019-04-05T06:53:26.912Z,6.11
2019-04-05T06:55:54.452Z,6.06
2019-04-05T06:58:28.906Z,6.04
2019-04-05T07:00:57.204Z,6.02
2019-04-05T07:03:21.593Z,6.04
2019-04-05T07:05:49.211Z,6.00
2019-04-05T07:08:18.375Z,5.97
2019-04-05T07:10:46.193Z,6.02
2019-04-05T07:13:13.911Z,5.96
2019-04-05T07:15:41.472Z,6.04
2019-04-05T07:18:09.172Z,6.08
2019-04-05T07:20:36.793Z,6.09
2019-04-05T07:23:04.615Z,6.07
2019-04-05T07:25:32.231Z,5.99
2019-04-05T07:27:59.971Z,6.13
2019-04-05T07:30:28.945Z,6.05
2019-04-05T07:32:56.806Z,6.06
2019-04-05T07:35:33.289Z,6.10
2019-04-05T07:37:54.012Z,6.17
2019-04-05T07:40:22.456Z,6.15
2019-04-05T07:42:50.252Z,6.13
2019-04-05T07:45:17.811Z,6.14
2019-04-05T07:47:45.398Z,6.06
2019-04-05T07:50:13.170Z,6.07
2019-04-05T07:52:40.792Z,6.21
2019-04-05T07:55:08.752Z,6.14
2019-04-05T07:57:36.312Z,6.19
2019-04-05T08:00:07.113Z,6.30
2019-04-05T08:02:34.737Z,6.18
2019-04-05T08:05:02.280Z,6.23
2019-04-05T08:07:33.608Z,6.21
2019-04-05T08:10:03.099Z,6.31
2019-04-05T08:12:32.143Z,6.25
2019-04-05T08:15:01.461Z,6.34
2019-04-05T08:17:29.646Z,6.37
2019-04-05T08:20:00.455Z,6.48
2019-04-05T08:22:28.095Z,6.56
2019-04-05T08:24:55.714Z,6.78
2019-04-05T08:27:23.291Z,6.93
2019-04-05T08:29:51.072Z,6.93
2019-04-05T08:32:18.631Z,6.86
2019-04-05T08:34:46.272Z,6.99
2019-04-05T08:37:13.814Z,6.92
2019-04-05T08:39:42.713Z,6.90
2019-04-05T08:42:10.909Z,6.92
2019-04-05T08:44:38.931Z,7.04
2019-04-05T08:47:07.794Z,7.23
2019-04-05T08:49:36.120Z,6.93
2019-04-05T08:52:04.354Z,7.03
2019-04-05T08:54:36.307Z,7.17
2019-04-05T08:57:04.471Z,7.05
2019-04-05T08:59:32.332Z,6.86
2019-04-05T09:02:00.488Z,6.95
2019-04-05T09:04:28.611Z,6.98
2019-04-05T09:06:56.563Z,6.83
2019-04-05T09:09:30.208Z,6.93
2019-04-05T09:11:58.421Z,6.85
2019-04-05T09:14:26.398Z,6.87
2019-04-05T09:16:56.130Z,6.85
2019-04-05T09:19:24.286Z,7.02
2019-04-05T09:21:53.074Z,6.92
2019-04-05T09:24:20.752Z,7.00
2019-04-05T09:26:48.291Z,6.97
2019-04-05T09:29:15.952Z,7.01
2019-04-05T09:31:43.512Z,7.04
2019-04-05T09:34:11.372Z,7.06
2019-04-05T09:36:38.832Z,7.07
2019-04-05T09:39:13.653Z,7.03
2019-04-05T09:41:40.214Z,7.18
2019-04-05T09:44:07.672Z,7.27
2019-04-05T09:46:45.967Z,7.24
2019-04-05T09:49:05.016Z,7.12
2019-04-05T09:51:32.699Z,7.13
2019-04-05T09:54:00.254Z,6.99
2019-04-05T09:56:28.292Z,7.01
2019-04-05T09:58:55.873Z,7.05
2019-04-05T10:01:23.533Z,7.14
2019-04-05T10:03:51.194Z,7.27
2019-04-05T10:06:18.892Z,7.27
2019-04-05T10:08:46.417Z,7.24
2019-04-05T10:11:14.252Z,7.05
2019-04-05T10:13:43.611Z,7.26
2019-04-05T10:16:11.470Z,7.29
2019-04-05T10:18:39.232Z,7.34
2019-04-05T10:21:06.793Z,7.30
2019-04-05T10:23:34.392Z,7.24
2019-04-05T10:26:02.995Z,7.20
2019-04-05T10:28:30.652Z,7.17
2019-04-05T10:30:58.633Z,7.40
2019-04-05T10:33:26.311Z,7.52
2019-04-05T10:35:54.132Z,7.46
2019-04-05T10:38:21.791Z,7.37
2019-04-05T10:40:49.539Z,7.44
2019-04-05T10:43:17.113Z,7.36
2019-04-05T10:45:44.752Z,7.44
2019-04-05T10:48:12.311Z,7.46
2019-04-05T10:50:39.912Z,7.46
2019-04-05T10:53:07.512Z,7.39
2019-04-05T10:55:36.760Z,7.41
2019-04-05T10:58:04.992Z,7.46
2019-04-05T11:00:32.592Z,7.47
2019-04-05T11:03:00.377Z,7.32
2019-04-05T11:05:28.032Z,7.47
2019-04-05T11:07:55.613Z,7.52
2019-04-05T11:10:23.291Z,7.41
2019-04-05T11:12:50.912Z,7.39
2019-04-05T11:15:18.646Z,7.48
2019-04-05T11:17:47.248Z,7.43
2019-04-05T11:20:22.850Z,7.39
2019-04-05T11:22:46.690Z,7.34
2019-04-05T11:25:20.582Z,7.45
2019-04-05T11:27:48.032Z,7.43
2019-04-05T11:30:30.933Z,7.48
2019-04-05T11:32:58.871Z,7.45
2019-04-05T11:35:28.933Z,7.49
2019-04-05T11:37:59.631Z,7.55
2019-04-05T11:40:28.435Z,7.39
2019-04-05T11:42:58.406Z,7.55
2019-04-05T11:45:26.322Z,7.53
2019-04-05T11:47:57.708Z,7.50
2019-04-05T11:50:34.533Z,7.63
2019-04-05T11:53:01.415Z,7.70
2019-04-05T11:55:31.622Z,7.83
2019-04-05T11:57:59.512Z,7.75
2019-04-05T12:00:52.248Z,7.93
2019-04-05T12:03:20.713Z,7.84
2019-04-05T12:05:48.451Z,7.87
2019-04-05T12:08:16.272Z,7.84
2019-04-05T12:10:44.072Z,7.86
2019-04-05T12:13:11.832Z,7.94
2019-04-05T12:15:44.311Z,7.86
2019-04-05T12:18:16.705Z,7.98
2019-04-05T12:20:59.757Z,7.98
2019-04-05T12:23:22.052Z,7.82
2019-04-05T12:25:56.953Z,7.62
2019-04-05T12:28:24.614Z,7.69
2019-04-05T12:31:01.626Z,7.63
2019-04-05T12:33:30.426Z,7.64
2019-04-05T12:35:58.652Z,7.77
2019-04-05T12:38:31.551Z,7.69
2019-04-05T12:41:02.096Z,7.72
2019-04-05T12:43:31.194Z,7.82
2019-04-05T12:45:59.192Z,7.54
2019-04-05T12:48:26.932Z,7.67
2019-04-05T12:51:01.126Z,7.78
2019-04-05T12:53:26.285Z,7.86
2019-04-05T12:55:56.871Z,7.82
2019-04-05T12:58:25.852Z,7.87
2019-04-05T13:00:53.688Z,7.77
2019-04-05T13:03:23.131Z,7.71
2019-04-05T13:05:51.583Z,7.75
2019-04-05T13:08:23.744Z,7.53
2019-04-05T13:10:51.611Z,7.47
2019-04-05T13:13:19.392Z,7.48
2019-04-05T13:15:47.072Z,7.54
2019-04-05T13:18:14.772Z,7.40
2019-04-05T13:20:42.372Z,7.57
2019-04-05T13:23:11.291Z,7.60
2019-04-05T13:25:40.944Z,7.64
2019-04-05T13:28:13.492Z,7.60
2019-04-05T13:30:38.093Z,7.59
2019-04-05T13:33:05.792Z,7.62
2019-04-05T13:35:33.472Z,7.58
2019-04-05T13:38:01.424Z,7.61
2019-04-05T13:40:29.603Z,7.55
2019-04-05T13:43:01.693Z,7.57
2019-04-05T13:45:28.772Z,7.49
2019-04-05T13:47:56.452Z,7.43
2019-04-05T13:50:24.395Z,7.52
2019-04-05T13:52:52.132Z,7.48
2019-04-05T13:55:19.741Z,7.40
2019-04-05T13:57:47.472Z,7.43
2019-04-05T14:00:18.119Z,7.47
2019-04-05T14:02:46.212Z,7.33
2019-04-05T14:05:13.991Z,7.28
2019-04-05T14:07:42.053Z,7.32
2019-04-05T14:10:12.343Z,7.32
2019-04-05T14:12:40.117Z,7.28
2019-04-05T14:15:11.296Z,7.27
2019-04-05T14:17:38.933Z,7.33
2019-04-05T14:20:09.058Z,7.32
2019-04-05T14:22:36.622Z,7.36
2019-04-05T14:25:05.275Z,7.38
2019-04-05T14:27:35.140Z,7.36
2019-04-05T14:30:03.150Z,7.34
2019-04-05T14:32:31.311Z,7.30
2019-04-05T14:34:59.112Z,7.36
2019-04-05T14:37:28.232Z,7.30
2019-04-05T14:39:55.971Z,7.38
2019-04-05T14:45:21.492Z,7.19
2019-04-05T14:47:49.175Z,7.31
2019-04-05T14:50:17.134Z,7.33
2019-04-05T14:52:45.332Z,7.23
2019-04-05T14:55:13.216Z,7.26
2019-04-05T14:57:41.760Z,7.27
2019-04-05T15:00:14.585Z,7.40
2019-04-05T15:02:43.780Z,7.46
2019-04-05T15:05:10.677Z,7.41
2019-04-05T15:07:38.233Z,7.30
2019-04-05T15:10:07.983Z,7.34
2019-04-05T15:12:49.967Z,7.30
2019-04-05T15:15:18.752Z,7.34
2019-04-05T15:17:48.568Z,7.27
2019-04-05T15:20:17.575Z,7.24
2019-04-05T15:22:45.128Z,7.27
2019-04-05T15:25:16.665Z,7.24
2019-04-05T15:27:42.626Z,7.19
2019-04-05T15:30:10.277Z,7.25
2019-04-05T15:32:37.816Z,7.21
2019-04-05T15:35:05.966Z,7.26
2019-04-05T15:37:33.417Z,7.26
2019-04-05T15:40:01.131Z,7.34
2019-04-05T15:42:28.708Z,7.27
2019-04-05T15:44:56.351Z,7.30
2019-04-05T15:47:23.986Z,7.14
2019-04-05T15:49:52.031Z,7.20
2019-04-05T15:52:20.407Z,7.14
2019-04-05T15:54:48.424Z,7.16
2019-04-05T15:57:16.147Z,7.11
2019-04-05T15:59:45.079Z,7.10
2019-04-05T16:02:13.116Z,7.15
2019-04-05T16:04:40.861Z,7.10
2019-04-05T16:07:08.382Z,7.09
2019-04-05T16:09:36.066Z,7.15
2019-04-05T16:12:04.196Z,7.21
2019-04-05T16:14:34.243Z,7.07
2019-04-05T16:17:02.182Z,6.94
2019-04-05T16:19:29.694Z,6.93
2019-04-05T16:21:57.187Z,7.01
2019-04-05T16:24:24.706Z,7.09
2019-04-05T16:26:52.354Z,7.16
2019-04-05T16:29:20.178Z,7.18
2019-04-05T16:31:47.877Z,7.13
2019-04-05T16:34:16.707Z,7.04
2019-04-05T16:36:44.279Z,7.08
2019-04-05T16:39:14.763Z,7.09
2019-04-05T16:41:42.409Z,7.00
2019-04-05T16:44:10.031Z,6.95
2019-04-05T16:46:37.611Z,6.93
2019-04-05T16:49:05.263Z,6.96
2019-04-05T16:51:32.949Z,6.95
2019-04-05T16:54:01.619Z,6.95
2019-04-05T16:56:29.774Z,6.95
2019-04-05T16:58:57.752Z,6.94
2019-04-05T17:01:27.354Z,6.96
2019-04-05T17:03:55.011Z,6.96
2019-04-05T17:06:22.612Z,6.98
2019-04-05T17:08:50.277Z,6.91
2019-04-05T17:11:17.997Z,6.97
2019-04-05T17:13:45.921Z,7.00
2019-04-05T17:16:13.913Z,7.09
2019-04-05T17:18:41.572Z,7.12
2019-04-05T17:21:09.450Z,7.16
2019-04-05T17:23:37.627Z,7.16
2019-04-05T17:26:05.621Z,7.11
2019-04-05T17:28:33.731Z,7.14
2019-04-05T17:31:01.593Z,7.16
2019-04-05T17:33:30.462Z,7.15
2019-04-05T17:35:58.450Z,7.06
2019-04-05T17:38:26.260Z,6.92
2019-04-05T17:40:54.031Z,7.04
2019-04-05T17:43:21.847Z,7.02
2019-04-05T17:45:49.792Z,7.05
2019-04-05T17:48:17.717Z,7.09
2019-04-05T17:50:45.591Z,6.96
2019-04-05T17:53:13.634Z,6.95
2019-04-05T17:55:42.712Z,6.95
2019-04-05T17:58:10.667Z,7.03
2019-04-05T18:00:38.932Z,7.03
2019-04-05T18:03:07.016Z,7.02
2019-04-05T18:05:34.996Z,7.06
2019-04-05T18:08:02.957Z,7.07
2019-04-05T18:10:30.806Z,7.13
2019-04-05T18:12:59.821Z,7.19
2019-04-05T18:15:27.757Z,7.03
2019-04-05T18:17:55.467Z,6.99
2019-04-05T18:20:23.346Z,7.06
2019-04-05T18:22:51.143Z,7.05
2019-04-05T18:25:19.499Z,7.02
2019-04-05T18:27:47.426Z,7.00
2019-04-05T18:30:15.487Z,7.03
2019-04-05T18:32:43.451Z,7.09
2019-04-05T18:35:11.397Z,7.13
2019-04-05T18:37:39.353Z,7.11
2019-04-05T18:40:07.357Z,7.16
2019-04-05T18:42:35.332Z,7.10
2019-04-05T18:45:03.321Z,7.03
2019-04-05T18:47:31.352Z,7.05
2019-04-05T18:50:03.086Z,7.07
2019-04-05T18:52:29.487Z,7.14
2019-04-05T18:54:57.428Z,7.17
2019-04-05T18:57:25.267Z,7.10
2019-04-05T18:59:53.127Z,7.17
2019-04-05T19:02:21.106Z,7.22
2019-04-05T19:04:48.957Z,7.27
2019-04-05T19:07:17.012Z,7.24
2019-04-05T19:09:44.977Z,7.27
2019-04-05T19:12:14.357Z,7.25
2019-04-05T19:14:42.166Z,7.21
2019-04-05T19:17:23.188Z,7.24
2019-04-05T19:19:40.896Z,7.18
2019-04-05T19:22:08.786Z,7.11
2019-04-05T19:24:37.160Z,7.11
2019-04-05T19:27:05.142Z,7.05
2019-04-05T19:29:32.972Z,7.08
2019-04-05T19:49:29.489Z,7.01
2019-04-05T19:51:57.347Z,7.15
2019-04-05T19:54:26.494Z,7.20
2019-04-05T19:56:54.497Z,7.21
2019-04-05T19:59:23.392Z,7.21
2019-04-05T20:01:51.353Z,7.20
2019-04-05T20:04:19.346Z,7.19
2019-04-05T20:06:47.273Z,7.09
2019-04-05T20:09:16.502Z,7.08
2019-04-05T20:11:44.447Z,7.19
2019-04-05T20:14:13.346Z,7.14
2019-04-05T20:16:41.257Z,7.25
2019-04-05T20:19:09.169Z,7.22
2019-04-05T20:21:36.927Z,7.30
2019-04-05T20:24:13.677Z,7.36
2019-04-05T20:26:34.588Z,7.38
2019-04-05T20:29:02.295Z,7.42
2019-04-05T20:31:30.526Z,7.33
2019-04-05T20:33:59.486Z,7.36
2019-04-05T20:36:27.247Z,7.37
2019-04-05T20:38:55.166Z,7.28
2019-04-05T20:41:22.829Z,7.22
2019-04-05T20:43:51.821Z,7.22
2019-04-05T20:46:19.597Z,7.20
2019-04-05T20:48:47.346Z,7.33
2019-04-05T20:51:15.143Z,7.28
2019-04-05T20:53:42.767Z,7.31
2019-04-05T20:56:10.451Z,7.26
2019-04-05T20:58:38.147Z,7.22
2019-04-05T21:01:05.762Z,7.30
2019-04-05T21:03:33.257Z,7.35
2019-04-05T21:06:00.761Z,7.38
2019-04-05T21:08:29.335Z,7.32
2019-04-05T21:10:58.874Z,7.27
2019-04-05T21:13:26.163Z,7.25
2019-04-05T21:15:53.954Z,7.14
2019-04-05T21:18:22.017Z,7.16
2019-04-05T21:20:49.487Z,7.05
2019-04-05T21:23:17.001Z,7.13
2019-04-05T21:25:44.931Z,7.13
2019-04-05T21:28:12.601Z,7.11
2019-04-05T21:30:40.202Z,7.11
2019-04-05T21:33:07.682Z,7.01
2019-04-05T21:35:35.576Z,7.08
2019-04-05T21:38:03.532Z,7.19
2019-04-05T21:40:34.196Z,7.17
2019-04-05T21:43:02.080Z,7.16
2019-04-05T21:45:32.014Z,7.13
2019-04-05T21:48:01.689Z,7.13
2019-04-05T21:50:31.883Z,7.10
2019-04-05T21:52:59.661Z,7.06
2019-04-05T21:55:28.171Z,7.13
2019-04-05T21:57:55.874Z,7.15
2019-04-05T22:00:26.098Z,7.09
2019-04-05T22:02:55.820Z,7.15
2019-04-05T22:05:23.872Z,7.04
2019-04-05T22:07:51.700Z,7.07
2019-04-05T22:10:20.394Z,7.05
2019-04-05T22:12:47.910Z,7.07
2019-04-05T22:15:16.426Z,7.00
2019-04-05T22:17:48.088Z,7.02
2019-04-05T22:20:18.418Z,6.98
2019-04-05T22:22:48.147Z,6.99
2019-04-05T22:25:15.579Z,7.02
2019-04-05T22:27:44.076Z,6.95
2019-04-05T22:30:12.782Z,6.93
2019-04-05T22:32:40.227Z,6.87
2019-04-05T22:35:08.927Z,6.88
2019-04-05T22:37:36.331Z,6.93
2019-04-05T22:40:04.472Z,6.90
2019-04-05T22:42:31.874Z,6.89
2019-04-05T22:44:59.322Z,6.85
2019-04-05T22:47:26.711Z,6.91
2019-04-05T22:49:54.172Z,6.79
2019-04-05T22:52:21.596Z,6.83
2019-04-05T22:54:49.027Z,6.88
2019-04-05T22:57:16.397Z,6.92
2019-04-05T22:59:43.842Z,6.86
2019-04-05T23:02:11.777Z,6.97
2019-04-05T23:04:39.292Z,6.90
2019-04-05T23:07:06.752Z,6.87
2019-04-05T23:09:34.208Z,6.84
2019-04-05T23:12:01.607Z,6.85
2019-04-05T23:14:29.054Z,6.87
2019-04-05T23:16:56.416Z,6.88
2019-04-05T23:19:23.906Z,6.80
2019-04-05T23:21:51.297Z,6.81
2019-04-05T23:24:18.722Z,6.84
2019-04-05T23:26:46.117Z,6.88
2019-04-05T23:29:13.573Z,6.85
2019-04-05T23:31:40.967Z,6.94
2019-04-05T23:34:10.720Z,6.96
2019-04-05T23:36:38.167Z,7.02
2019-04-05T23:39:06.227Z,7.06
2019-04-05T23:41:33.618Z,7.10
2019-04-05T23:44:01.080Z,7.16
2019-04-05T23:46:28.462Z,7.20
2019-04-05T23:48:55.911Z,7.17
2019-04-05T23:51:23.332Z,7.15
2019-04-05T23:53:51.247Z,7.15
2019-04-05T23:56:18.736Z,7.19
2019-04-05T23:58:46.107Z,7.23
